< < Back
Terminal Aerodrome Forecast


Current Version              Previous Versions:   1  2  3  4  5  6  7  8  9  

Terminal Aerodrome Forecast

755
FTUS42 KJAX 031736
TAFJAX
TAF
KJAX 031736Z 0318/0418 24010G16KT P6SM FEW045 SCT070 BKN250
     FM032300 22012KT P6SM VCTS FEW025 BKN040CB
     FM040100 23005KT P6SM SCT040 BKN120
     FM040600 25007KT P6SM VCSH SCT030 BKN090
     FM040900 27009KT P6SM VCTS FEW015 SCT025CB BKN035
      TEMPO 0409/0413 5SM SHRA SCT015 BKN025
     FM041500 29010KT P6SM SCT025 OVC050=



Latest METAR

625
SAUS80 KWBC 040800 CCA
MTRJAX
METAR KJAX 040756Z 22009KT 10SM FEW026 SCT250 22/21 A2977 RMK AO2 SLP080
T02220206


USA.gov is the U.S. government's official web portal to all federal, state and local government web resources and services.